sensor_id;sensor_type;location;lat;lon;timestamp;P1;durP1;ratioP1;P2;durP2;ratioP2
25419;SDS011;13354;48.174;11.566;2022-12-20T00:00:13;22.67;;;15.10;;
25419;SDS011;13354;48.174;11.566;2022-12-20T00:02:39;23.42;;;15.00;;
25419;SDS011;13354;48.174;11.566;2022-12-20T00:05:04;20.45;;;14.07;;
25419;SDS011;13354;48.174;11.566;2022-12-20T00:07:29;20.85;;;15.15;;
25419;SDS011;13354;48.174;11.566;2022-12-20T00:09:55;20.77;;;14.38;;
25419;SDS011;13354;48.174;11.566;2022-12-20T00:12:20;19.00;;;15.07;;
25419;SDS011;13354;48.174;11.566;2022-12-20T00:14:45;21.95;;;15.27;;
25419;SDS011;13354;48.174;11.566;2022-12-20T00:17:11;21.05;;;15.45;;
25419;SDS011;13354;48.174;11.566;2022-12-20T00:19:36;20.17;;;14.93;;
25419;SDS011;13354;48.174;11.566;2022-12-20T00:22:01;19.55;;;14.20;;
25419;SDS011;13354;48.174;11.566;2022-12-20T00:24:27;20.80;;;15.32;;
25419;SDS011;13354;48.174;11.566;2022-12-20T00:26:52;23.70;;;15.65;;
25419;SDS011;13354;48.174;11.566;2022-12-20T00:29:17;21.13;;;14.95;;
25419;SDS011;13354;48.174;11.566;2022-12-20T00:31:42;19.73;;;14.45;;
25419;SDS011;13354;48.174;11.566;2022-12-20T00:34:08;19.98;;;14.88;;
25419;SDS011;13354;48.174;11.566;2022-12-20T00:36:34;21.27;;;14.60;;
25419;SDS011;13354;48.174;11.566;2022-12-20T00:38:59;20.75;;;14.77;;
25419;SDS011;13354;48.174;11.566;2022-12-20T00:41:27;21.23;;;14.45;;
25419;SDS011;13354;48.174;11.566;2022-12-20T00:43:55;23.17;;;15.73;;
25419;SDS011;13354;48.174;11.566;2022-12-20T00:46:20;21.15;;;14.55;;
25419;SDS011;13354;48.174;11.566;2022-12-20T00:48:47;20.85;;;15.18;;
25419;SDS011;13354;48.174;11.566;2022-12-20T00:51:14;20.80;;;15.40;;
25419;SDS011;13354;48.174;11.566;2022-12-20T00:53:44;21.70;;;14.13;;
25419;SDS011;13354;48.174;11.566;2022-12-20T00:56:10;24.63;;;15.05;;
25419;SDS011;13354;48.174;11.566;2022-12-20T00:58:37;20.75;;;13.65;;
25419;SDS011;13354;48.174;11.566;2022-12-20T01:01:05;21.05;;;13.98;;
25419;SDS011;13354;48.174;11.566;2022-12-20T01:03:31;21.50;;;14.02;;
25419;SDS011;13354;48.174;11.566;2022-12-20T01:05:58;18.40;;;13.65;;
25419;SDS011;13354;48.174;11.566;2022-12-20T01:08:25;18.55;;;13.35;;
25419;SDS011;13354;48.174;11.566;2022-12-20T01:11:02;17.08;;;11.52;;
25419;SDS011;13354;48.174;11.566;2022-12-20T01:14:06;18.10;;;11.70;;
25419;SDS011;13354;48.174;11.566;2022-12-20T01:16:39;18.02;;;11.98;;
25419;SDS011;13354;48.174;11.566;2022-12-20T01:19:07;16.17;;;11.20;;
25419;SDS011;13354;48.174;11.566;2022-12-20T01:21:34;15.20;;;10.65;;
25419;SDS011;13354;48.174;11.566;2022-12-20T01:23:59;16.00;;;11.18;;
25419;SDS011;13354;48.174;11.566;2022-12-20T01:26:26;13.77;;;10.13;;
25419;SDS011;13354;48.174;11.566;2022-12-20T01:28:54;15.98;;;10.82;;
25419;SDS011;13354;48.174;11.566;2022-12-20T01:31:22;15.90;;;11.48;;
25419;SDS011;13354;48.174;11.566;2022-12-20T01:33:48;18.42;;;11.38;;
25419;SDS011;13354;48.174;11.566;2022-12-20T01:36:19;17.70;;;12.27;;
25419;SDS011;13354;48.174;11.566;2022-12-20T01:38:48;12.90;;;8.98;;
25419;SDS011;13354;48.174;11.566;2022-12-20T01:41:15;15.35;;;10.98;;
25419;SDS011;13354;48.174;11.566;2022-12-20T01:43:47;14.77;;;10.05;;
25419;SDS011;13354;48.174;11.566;2022-12-20T01:46:19;14.27;;;9.73;;
25419;SDS011;13354;48.174;11.566;2022-12-20T01:48:55;14.60;;;10.27;;
25419;SDS011;13354;48.174;11.566;2022-12-20T01:51:23;11.25;;;7.32;;
25419;SDS011;13354;48.174;11.566;2022-12-20T01:53:55;9.50;;;6.75;;
25419;SDS011;13354;48.174;11.566;2022-12-20T01:56:24;9.98;;;6.57;;
25419;SDS011;13354;48.174;11.566;2022-12-20T01:58:51;10.00;;;7.60;;
25419;SDS011;13354;48.174;11.566;2022-12-20T02:01:20;10.07;;;7.50;;
25419;SDS011;13354;48.174;11.566;2022-12-20T02:03:46;11.20;;;7.80;;
25419;SDS011;13354;48.174;11.566;2022-12-20T02:06:14;9.38;;;7.05;;
25419;SDS011;13354;48.174;11.566;2022-12-20T02:08:42;10.00;;;6.60;;
25419;SDS011;13354;48.174;11.566;2022-12-20T02:11:16;7.45;;;5.90;;
25419;SDS011;13354;48.174;11.566;2022-12-20T02:22:25;9.00;;;6.78;;
25419;SDS011;13354;48.174;11.566;2022-12-20T02:25:10;9.13;;;6.90;;
25419;SDS011;13354;48.174;11.566;2022-12-20T02:30:23;8.25;;;6.25;;
25419;SDS011;13354;48.174;11.566;2022-12-20T02:35:27;6.38;;;5.28;;
25419;SDS011;13354;48.174;11.566;2022-12-20T02:37:56;9.00;;;6.13;;
25419;SDS011;13354;48.174;11.566;2022-12-20T02:40:24;9.20;;;6.35;;
25419;SDS011;13354;48.174;11.566;2022-12-20T02:42:54;8.98;;;6.15;;
25419;SDS011;13354;48.174;11.566;2022-12-20T02:45:25;7.53;;;5.57;;
25419;SDS011;13354;48.174;11.566;2022-12-20T02:48:07;8.52;;;5.85;;
25419;SDS011;13354;48.174;11.566;2022-12-20T02:50:39;6.13;;;4.32;;
25419;SDS011;13354;48.174;11.566;2022-12-20T02:53:11;5.15;;;4.18;;
25419;SDS011;13354;48.174;11.566;2022-12-20T02:58:27;6.07;;;4.60;;
25419;SDS011;13354;48.174;11.566;2022-12-20T03:00:58;6.43;;;4.15;;
25419;SDS011;13354;48.174;11.566;2022-12-20T03:03:29;4.82;;;3.92;;
25419;SDS011;13354;48.174;11.566;2022-12-20T03:05:56;4.55;;;4.00;;
25419;SDS011;13354;48.174;11.566;2022-12-20T03:08:22;4.28;;;3.42;;
25419;SDS011;13354;48.174;11.566;2022-12-20T03:10:48;4.78;;;3.35;;
25419;SDS011;13354;48.174;11.566;2022-12-20T03:13:15;5.05;;;3.60;;
25419;SDS011;13354;48.174;11.566;2022-12-20T03:15:41;5.40;;;4.05;;
25419;SDS011;13354;48.174;11.566;2022-12-20T03:18:06;6.18;;;3.67;;
25419;SDS011;13354;48.174;11.566;2022-12-20T03:20:32;5.13;;;3.58;;
25419;SDS011;13354;48.174;11.566;2022-12-20T03:22:57;4.60;;;3.95;;
25419;SDS011;13354;48.174;11.566;2022-12-20T03:25:23;5.18;;;3.55;;
25419;SDS011;13354;48.174;11.566;2022-12-20T03:27:49;7.35;;;3.45;;
25419;SDS011;13354;48.174;11.566;2022-12-20T03:30:14;5.65;;;3.88;;
25419;SDS011;13354;48.174;11.566;2022-12-20T03:32:39;4.82;;;3.75;;
25419;SDS011;13354;48.174;11.566;2022-12-20T03:35:05;5.72;;;3.65;;
25419;SDS011;13354;48.174;11.566;2022-12-20T03:37:31;4.95;;;3.83;;
25419;SDS011;13354;48.174;11.566;2022-12-20T03:39:56;6.30;;;3.35;;
25419;SDS011;13354;48.174;11.566;2022-12-20T03:42:21;4.28;;;3.55;;
25419;SDS011;13354;48.174;11.566;2022-12-20T03:44:47;3.83;;;3.10;;
25419;SDS011;13354;48.174;11.566;2022-12-20T03:47:12;5.07;;;3.45;;
25419;SDS011;13354;48.174;11.566;2022-12-20T03:49:38;3.63;;;2.85;;
25419;SDS011;13354;48.174;11.566;2022-12-20T03:52:03;5.18;;;3.60;;
25419;SDS011;13354;48.174;11.566;2022-12-20T03:54:28;3.75;;;2.80;;
25419;SDS011;13354;48.174;11.566;2022-12-20T03:56:54;3.45;;;2.63;;
25419;SDS011;13354;48.174;11.566;2022-12-20T03:59:19;4.95;;;2.80;;
25419;SDS011;13354;48.174;11.566;2022-12-20T04:01:44;3.75;;;2.67;;
25419;SDS011;13354;48.174;11.566;2022-12-20T04:04:11;3.15;;;2.80;;
25419;SDS011;13354;48.174;11.566;2022-12-20T04:06:37;3.40;;;2.70;;
25419;SDS011;13354;48.174;11.566;2022-12-20T04:09:03;4.18;;;2.95;;
25419;SDS011;13354;48.174;11.566;2022-12-20T04:11:28;3.15;;;2.40;;
25419;SDS011;13354;48.174;11.566;2022-12-20T04:13:53;3.75;;;2.83;;
25419;SDS011;13354;48.174;11.566;2022-12-20T04:16:20;3.67;;;2.75;;
25419;SDS011;13354;48.174;11.566;2022-12-20T04:18:47;3.88;;;2.72;;
25419;SDS011;13354;48.174;11.566;2022-12-20T04:21:12;5.07;;;2.97;;
25419;SDS011;13354;48.174;11.566;2022-12-20T04:23:39;3.13;;;2.35;;
25419;SDS011;13354;48.174;11.566;2022-12-20T04:26:06;3.03;;;2.72;;
25419;SDS011;13354;48.174;11.566;2022-12-20T04:28:32;3.38;;;2.97;;
25419;SDS011;13354;48.174;11.566;2022-12-20T04:30:58;4.95;;;2.80;;
25419;SDS011;13354;48.174;11.566;2022-12-20T04:33:24;3.42;;;2.58;;
25419;SDS011;13354;48.174;11.566;2022-12-20T04:35:51;4.63;;;2.70;;
25419;SDS011;13354;48.174;11.566;2022-12-20T04:38:17;4.75;;;2.65;;
25419;SDS011;13354;48.174;11.566;2022-12-20T04:40:43;4.70;;;2.53;;
25419;SDS011;13354;48.174;11.566;2022-12-20T04:43:08;3.83;;;2.80;;
25419;SDS011;13354;48.174;11.566;2022-12-20T04:45:34;4.35;;;2.88;;
25419;SDS011;13354;48.174;11.566;2022-12-20T04:47:59;5.72;;;2.63;;
25419;SDS011;13354;48.174;11.566;2022-12-20T04:50:25;4.35;;;3.17;;
25419;SDS011;13354;48.174;11.566;2022-12-20T04:52:50;4.15;;;2.95;;
25419;SDS011;13354;48.174;11.566;2022-12-20T04:55:37;4.25;;;2.97;;
25419;SDS011;13354;48.174;11.566;2022-12-20T04:58:04;4.05;;;3.22;;
25419;SDS011;13354;48.174;11.566;2022-12-20T05:00:30;3.95;;;2.90;;
25419;SDS011;13354;48.174;11.566;2022-12-20T05:02:56;4.25;;;3.10;;
25419;SDS011;13354;48.174;11.566;2022-12-20T05:05:21;4.45;;;3.10;;
25419;SDS011;13354;48.174;11.566;2022-12-20T05:07:46;4.95;;;3.10;;
25419;SDS011;13354;48.174;11.566;2022-12-20T05:10:12;4.30;;;3.03;;
25419;SDS011;13354;48.174;11.566;2022-12-20T05:12:37;3.85;;;2.83;;
25419;SDS011;13354;48.174;11.566;2022-12-20T05:15:03;4.32;;;2.90;;
25419;SDS011;13354;48.174;11.566;2022-12-20T05:17:28;4.28;;;2.72;;
25419;SDS011;13354;48.174;11.566;2022-12-20T05:19:54;3.40;;;3.03;;
25419;SDS011;13354;48.174;11.566;2022-12-20T05:22:19;4.13;;;2.85;;
25419;SDS011;13354;48.174;11.566;2022-12-20T05:25:03;4.93;;;3.17;;
25419;SDS011;13354;48.174;11.566;2022-12-20T05:27:48;4.65;;;3.50;;
25419;SDS011;13354;48.174;11.566;2022-12-20T05:30:13;4.80;;;3.53;;
25419;SDS011;13354;48.174;11.566;2022-12-20T05:32:40;3.90;;;3.15;;
25419;SDS011;13354;48.174;11.566;2022-12-20T05:35:05;4.95;;;2.90;;
25419;SDS011;13354;48.174;11.566;2022-12-20T05:37:31;4.45;;;3.00;;
25419;SDS011;13354;48.174;11.566;2022-12-20T05:39:56;3.97;;;3.00;;
25419;SDS011;13354;48.174;11.566;2022-12-20T05:42:22;4.80;;;3.10;;
25419;SDS011;13354;48.174;11.566;2022-12-20T05:44:47;5.00;;;3.25;;
25419;SDS011;13354;48.174;11.566;2022-12-20T05:47:12;4.82;;;3.40;;
25419;SDS011;13354;48.174;11.566;2022-12-20T05:49:38;4.05;;;3.35;;
25419;SDS011;13354;48.174;11.566;2022-12-20T05:52:03;3.60;;;2.95;;
25419;SDS011;13354;48.174;11.566;2022-12-20T05:54:29;4.30;;;3.33;;
25419;SDS011;13354;48.174;11.566;2022-12-20T05:56:54;4.50;;;3.08;;
25419;SDS011;13354;48.174;11.566;2022-12-20T05:59:19;4.10;;;2.97;;
25419;SDS011;13354;48.174;11.566;2022-12-20T06:01:45;4.85;;;3.15;;
25419;SDS011;13354;48.174;11.566;2022-12-20T06:04:10;5.05;;;3.22;;
25419;SDS011;13354;48.174;11.566;2022-12-20T06:06:35;5.35;;;3.20;;
25419;SDS011;13354;48.174;11.566;2022-12-20T06:09:01;5.50;;;2.97;;
25419;SDS011;13354;48.174;11.566;2022-12-20T06:11:26;2.97;;;2.63;;
25419;SDS011;13354;48.174;11.566;2022-12-20T06:13:51;5.13;;;3.35;;
25419;SDS011;13354;48.174;11.566;2022-12-20T06:16:16;4.03;;;2.88;;
25419;SDS011;13354;48.174;11.566;2022-12-20T06:18:44;5.70;;;3.20;;
25419;SDS011;13354;48.174;11.566;2022-12-20T06:21:09;3.30;;;3.00;;
25419;SDS011;13354;48.174;11.566;2022-12-20T06:23:35;3.28;;;2.90;;
25419;SDS011;13354;48.174;11.566;2022-12-20T06:26:00;3.47;;;2.85;;
25419;SDS011;13354;48.174;11.566;2022-12-20T06:28:26;4.20;;;2.63;;
25419;SDS011;13354;48.174;11.566;2022-12-20T06:30:52;3.65;;;2.63;;
25419;SDS011;13354;48.174;11.566;2022-12-20T06:33:18;4.30;;;2.67;;
25419;SDS011;13354;48.174;11.566;2022-12-20T06:35:43;3.05;;;2.50;;
25419;SDS011;13354;48.174;11.566;2022-12-20T06:38:08;5.10;;;2.97;;
25419;SDS011;13354;48.174;11.566;2022-12-20T06:40:34;4.70;;;2.63;;
25419;SDS011;13354;48.174;11.566;2022-12-20T06:42:59;3.92;;;2.90;;
25419;SDS011;13354;48.174;11.566;2022-12-20T06:45:24;4.93;;;3.00;;
25419;SDS011;13354;48.174;11.566;2022-12-20T06:47:49;4.22;;;2.78;;
25419;SDS011;13354;48.174;11.566;2022-12-20T06:50:15;6.97;;;3.13;;
25419;SDS011;13354;48.174;11.566;2022-12-20T06:52:40;4.03;;;2.70;;
25419;SDS011;13354;48.174;11.566;2022-12-20T06:55:05;4.55;;;2.70;;
25419;SDS011;13354;48.174;11.566;2022-12-20T06:57:31;4.47;;;3.20;;
25419;SDS011;13354;48.174;11.566;2022-12-20T06:59:57;4.20;;;3.15;;
25419;SDS011;13354;48.174;11.566;2022-12-20T07:02:22;5.60;;;2.65;;
25419;SDS011;13354;48.174;11.566;2022-12-20T07:04:47;6.22;;;3.35;;
25419;SDS011;13354;48.174;11.566;2022-12-20T07:07:13;7.63;;;3.10;;
25419;SDS011;13354;48.174;11.566;2022-12-20T07:09:38;4.75;;;3.20;;
25419;SDS011;13354;48.174;11.566;2022-12-20T07:12:05;4.70;;;3.17;;
25419;SDS011;13354;48.174;11.566;2022-12-20T07:14:31;2.70;;;2.40;;
25419;SDS011;13354;48.174;11.566;2022-12-20T07:16:57;4.35;;;2.88;;
25419;SDS011;13354;48.174;11.566;2022-12-20T07:19:22;4.22;;;2.90;;
25419;SDS011;13354;48.174;11.566;2022-12-20T07:21:47;3.83;;;2.95;;
25419;SDS011;13354;48.174;11.566;2022-12-20T07:24:12;5.07;;;2.90;;
25419;SDS011;13354;48.174;11.566;2022-12-20T07:26:38;5.35;;;2.83;;
25419;SDS011;13354;48.174;11.566;2022-12-20T07:29:03;5.13;;;3.05;;
25419;SDS011;13354;48.174;11.566;2022-12-20T07:31:29;4.18;;;2.90;;
25419;SDS011;13354;48.174;11.566;2022-12-20T07:33:54;6.85;;;2.88;;
25419;SDS011;13354;48.174;11.566;2022-12-20T07:36:19;5.22;;;3.25;;
25419;SDS011;13354;48.174;11.566;2022-12-20T07:38:45;6.20;;;3.25;;
25419;SDS011;13354;48.174;11.566;2022-12-20T07:41:14;5.22;;;3.20;;
25419;SDS011;13354;48.174;11.566;2022-12-20T07:43:41;5.18;;;3.15;;
25419;SDS011;13354;48.174;11.566;2022-12-20T07:46:07;3.88;;;3.17;;
25419;SDS011;13354;48.174;11.566;2022-12-20T07:48:33;5.45;;;3.70;;
25419;SDS011;13354;48.174;11.566;2022-12-20T07:51:00;7.57;;;4.70;;
25419;SDS011;13354;48.174;11.566;2022-12-20T07:53:30;6.30;;;4.63;;
25419;SDS011;13354;48.174;11.566;2022-12-20T07:56:00;8.40;;;4.80;;
25419;SDS011;13354;48.174;11.566;2022-12-20T07:58:27;9.70;;;4.50;;
25419;SDS011;13354;48.174;11.566;2022-12-20T08:00:54;8.38;;;5.05;;
25419;SDS011;13354;48.174;11.566;2022-12-20T08:03:26;13.00;;;4.63;;
25419;SDS011;13354;48.174;11.566;2022-12-20T08:08:22;9.95;;;4.53;;
25419;SDS011;13354;48.174;11.566;2022-12-20T08:10:48;7.00;;;4.40;;
25419;SDS011;13354;48.174;11.566;2022-12-20T08:13:14;13.23;;;4.53;;
25419;SDS011;13354;48.174;11.566;2022-12-20T08:15:40;14.32;;;6.07;;
25419;SDS011;13354;48.174;11.566;2022-12-20T08:18:05;8.43;;;5.03;;
25419;SDS011;13354;48.174;11.566;2022-12-20T08:20:31;10.23;;;6.82;;
25419;SDS011;13354;48.174;11.566;2022-12-20T08:22:57;12.27;;;6.00;;
25419;SDS011;13354;48.174;11.566;2022-12-20T08:25:22;11.80;;;5.55;;
25419;SDS011;13354;48.174;11.566;2022-12-20T08:27:48;9.30;;;5.30;;
25419;SDS011;13354;48.174;11.566;2022-12-20T08:30:13;10.82;;;5.75;;
25419;SDS011;13354;48.174;11.566;2022-12-20T08:32:39;10.38;;;6.72;;
25419;SDS011;13354;48.174;11.566;2022-12-20T08:35:05;15.98;;;8.57;;
25419;SDS011;13354;48.174;11.566;2022-12-20T08:37:30;14.13;;;7.55;;
25419;SDS011;13354;48.174;11.566;2022-12-20T08:39:56;16.42;;;10.13;;
25419;SDS011;13354;48.174;11.566;2022-12-20T08:42:21;14.10;;;7.88;;
25419;SDS011;13354;48.174;11.566;2022-12-20T08:44:46;13.00;;;7.70;;
25419;SDS011;13354;48.174;11.566;2022-12-20T08:47:15;11.20;;;7.10;;
25419;SDS011;13354;48.174;11.566;2022-12-20T08:49:40;12.80;;;7.90;;
25419;SDS011;13354;48.174;11.566;2022-12-20T08:52:05;10.00;;;7.28;;
25419;SDS011;13354;48.174;11.566;2022-12-20T08:54:31;9.98;;;6.72;;
25419;SDS011;13354;48.174;11.566;2022-12-20T08:56:56;8.95;;;6.47;;
25419;SDS011;13354;48.174;11.566;2022-12-20T08:59:21;11.88;;;6.57;;
25419;SDS011;13354;48.174;11.566;2022-12-20T09:01:47;8.98;;;6.70;;
25419;SDS011;13354;48.174;11.566;2022-12-20T09:04:12;13.60;;;7.10;;
25419;SDS011;13354;48.174;11.566;2022-12-20T09:06:38;13.82;;;7.22;;
25419;SDS011;13354;48.174;11.566;2022-12-20T09:09:04;11.10;;;7.07;;
25419;SDS011;13354;48.174;11.566;2022-12-20T09:11:30;10.07;;;6.63;;
25419;SDS011;13354;48.174;11.566;2022-12-20T09:13:57;9.60;;;7.18;;
25419;SDS011;13354;48.174;11.566;2022-12-20T09:16:26;11.10;;;6.80;;
25419;SDS011;13354;48.174;11.566;2022-12-20T09:18:54;7.47;;;6.28;;
25419;SDS011;13354;48.174;11.566;2022-12-20T09:21:21;10.00;;;6.00;;
25419;SDS011;13354;48.174;11.566;2022-12-20T09:23:46;8.27;;;6.35;;
25419;SDS011;13354;48.174;11.566;2022-12-20T09:26:15;8.45;;;6.28;;
25419;SDS011;13354;48.174;11.566;2022-12-20T09:28:42;11.07;;;6.90;;
25419;SDS011;13354;48.174;11.566;2022-12-20T09:31:10;9.13;;;5.90;;
25419;SDS011;13354;48.174;11.566;2022-12-20T09:33:37;12.10;;;6.32;;
25419;SDS011;13354;48.174;11.566;2022-12-20T09:36:03;9.30;;;5.80;;
25419;SDS011;13354;48.174;11.566;2022-12-20T09:38:29;9.85;;;5.75;;
25419;SDS011;13354;48.174;11.566;2022-12-20T09:40:57;9.23;;;5.63;;
25419;SDS011;13354;48.174;11.566;2022-12-20T09:43:25;10.23;;;5.40;;
25419;SDS011;13354;48.174;11.566;2022-12-20T09:45:52;7.80;;;5.13;;
25419;SDS011;13354;48.174;11.566;2022-12-20T09:48:24;8.35;;;5.55;;
25419;SDS011;13354;48.174;11.566;2022-12-20T09:59:32;6.50;;;4.75;;
25419;SDS011;13354;48.174;11.566;2022-12-20T10:01:51;6.70;;;4.85;;
25419;SDS011;13354;48.174;11.566;2022-12-20T10:04:21;5.28;;;4.15;;
25419;SDS011;13354;48.174;11.566;2022-12-20T10:06:52;6.43;;;4.32;;
25419;SDS011;13354;48.174;11.566;2022-12-20T10:16:54;6.77;;;4.17;;
25419;SDS011;13354;48.174;11.566;2022-12-20T10:22:10;7.43;;;4.63;;
25419;SDS011;13354;48.174;11.566;2022-12-20T10:24:44;9.93;;;4.93;;
25419;SDS011;13354;48.174;11.566;2022-12-20T10:27:15;10.75;;;4.88;;
25419;SDS011;13354;48.174;11.566;2022-12-20T10:29:43;7.15;;;4.55;;
25419;SDS011;13354;48.174;11.566;2022-12-20T10:32:15;9.27;;;4.97;;
25419;SDS011;13354;48.174;11.566;2022-12-20T10:34:54;13.80;;;5.40;;
25419;SDS011;13354;48.174;11.566;2022-12-20T10:37:23;9.15;;;6.32;;
25419;SDS011;13354;48.174;11.566;2022-12-20T10:39:50;8.40;;;5.20;;
25419;SDS011;13354;48.174;11.566;2022-12-20T10:42:23;7.95;;;5.35;;
25419;SDS011;13354;48.174;11.566;2022-12-20T10:44:51;7.93;;;5.30;;
25419;SDS011;13354;48.174;11.566;2022-12-20T10:47:26;8.93;;;5.50;;
25419;SDS011;13354;48.174;11.566;2022-12-20T10:50:12;9.57;;;5.15;;
25419;SDS011;13354;48.174;11.566;2022-12-20T10:52:40;12.00;;;8.25;;
25419;SDS011;13354;48.174;11.566;2022-12-20T10:55:51;11.77;;;6.05;;
25419;SDS011;13354;48.174;11.566;2022-12-20T10:58:05;9.05;;;5.82;;
25419;SDS011;13354;48.174;11.566;2022-12-20T11:00:40;7.07;;;4.88;;
25419;SDS011;13354;48.174;11.566;2022-12-20T11:03:24;16.15;;;7.72;;
25419;SDS011;13354;48.174;11.566;2022-12-20T11:05:56;9.75;;;6.75;;
25419;SDS011;13354;48.174;11.566;2022-12-20T11:08:24;10.02;;;6.35;;
25419;SDS011;13354;48.174;11.566;2022-12-20T11:11:05;8.40;;;5.72;;
25419;SDS011;13354;48.174;11.566;2022-12-20T11:13:37;10.68;;;6.18;;
25419;SDS011;13354;48.174;11.566;2022-12-20T11:16:03;9.43;;;6.38;;
25419;SDS011;13354;48.174;11.566;2022-12-20T11:18:34;14.60;;;6.85;;
25419;SDS011;13354;48.174;11.566;2022-12-20T11:24:11;9.40;;;6.70;;
25419;SDS011;13354;48.174;11.566;2022-12-20T11:29:30;12.73;;;6.82;;
25419;SDS011;13354;48.174;11.566;2022-12-20T11:35:24;12.73;;;6.75;;
25419;SDS011;13354;48.174;11.566;2022-12-20T11:44:03;58.65;;;39.47;;
25419;SDS011;13354;48.174;11.566;2022-12-20T11:46:45;15.23;;;10.10;;
25419;SDS011;13354;48.174;11.566;2022-12-20T11:49:41;10.38;;;6.35;;
25419;SDS011;13354;48.174;11.566;2022-12-20T11:52:26;14.60;;;6.35;;
25419;SDS011;13354;48.174;11.566;2022-12-20T11:55:45;10.40;;;6.30;;
25419;SDS011;13354;48.174;11.566;2022-12-20T11:58:05;14.35;;;6.22;;
25419;SDS011;13354;48.174;11.566;2022-12-20T12:00:39;11.25;;;6.40;;
25419;SDS011;13354;48.174;11.566;2022-12-20T12:03:19;9.73;;;5.75;;
25419;SDS011;13354;48.174;11.566;2022-12-20T12:05:51;11.05;;;6.05;;
25419;SDS011;13354;48.174;11.566;2022-12-20T12:08:23;13.25;;;6.30;;
25419;SDS011;13354;48.174;11.566;2022-12-20T12:11:16;16.23;;;6.45;;
25419;SDS011;13354;48.174;11.566;2022-12-20T12:13:42;14.20;;;6.32;;
25419;SDS011;13354;48.174;11.566;2022-12-20T12:18:42;11.15;;;6.32;;
25419;SDS011;13354;48.174;11.566;2022-12-20T12:21:09;10.80;;;7.22;;
25419;SDS011;13354;48.174;11.566;2022-12-20T12:24:00;10.88;;;7.28;;
25419;SDS011;13354;48.174;11.566;2022-12-20T12:26:35;12.43;;;7.35;;
25419;SDS011;13354;48.174;11.566;2022-12-20T12:29:08;9.68;;;7.00;;
25419;SDS011;13354;48.174;11.566;2022-12-20T12:37:01;11.65;;;6.85;;
25419;SDS011;13354;48.174;11.566;2022-12-20T12:45:28;15.60;;;6.50;;
25419;SDS011;13354;48.174;11.566;2022-12-20T12:48:13;11.95;;;7.13;;
25419;SDS011;13354;48.174;11.566;2022-12-20T12:50:45;11.52;;;7.03;;
25419;SDS011;13354;48.174;11.566;2022-12-20T12:53:15;12.75;;;6.35;;
25419;SDS011;13354;48.174;11.566;2022-12-20T12:55:45;11.52;;;6.57;;
25419;SDS011;13354;48.174;11.566;2022-12-20T13:00:59;14.57;;;7.05;;
25419;SDS011;13354;48.174;11.566;2022-12-20T13:11:33;11.88;;;7.18;;
25419;SDS011;13354;48.174;11.566;2022-12-20T13:16:38;11.52;;;6.93;;
25419;SDS011;13354;48.174;11.566;2022-12-20T13:21:38;10.23;;;6.82;;
25419;SDS011;13354;48.174;11.566;2022-12-20T13:26:55;14.07;;;7.47;;
25419;SDS011;13354;48.174;11.566;2022-12-20T13:29:22;14.05;;;7.55;;
25419;SDS011;13354;48.174;11.566;2022-12-20T13:31:49;17.67;;;7.75;;
25419;SDS011;13354;48.174;11.566;2022-12-20T13:34:34;14.43;;;7.53;;
25419;SDS011;13354;48.174;11.566;2022-12-20T13:37:00;20.20;;;7.53;;
25419;SDS011;13354;48.174;11.566;2022-12-20T13:42:06;22.30;;;8.90;;
25419;SDS011;13354;48.174;11.566;2022-12-20T13:44:41;23.05;;;11.30;;
25419;SDS011;13354;48.174;11.566;2022-12-20T13:54:53;26.67;;;16.10;;
25419;SDS011;13354;48.174;11.566;2022-12-20T13:57:31;30.15;;;16.85;;
25419;SDS011;13354;48.174;11.566;2022-12-20T14:00:05;25.92;;;16.30;;
25419;SDS011;13354;48.174;11.566;2022-12-20T14:02:41;19.80;;;13.18;;
25419;SDS011;13354;48.174;11.566;2022-12-20T14:05:18;24.48;;;15.95;;
25419;SDS011;13354;48.174;11.566;2022-12-20T14:07:53;27.83;;;15.68;;
25419;SDS011;13354;48.174;11.566;2022-12-20T14:10:28;31.95;;;16.02;;
25419;SDS011;13354;48.174;11.566;2022-12-20T14:12:55;26.55;;;16.58;;
25419;SDS011;13354;48.174;11.566;2022-12-20T14:17:49;26.70;;;16.20;;
25419;SDS011;13354;48.174;11.566;2022-12-20T14:20:15;21.80;;;15.52;;
25419;SDS011;13354;48.174;11.566;2022-12-20T14:22:52;26.20;;;15.75;;
25419;SDS011;13354;48.174;11.566;2022-12-20T14:25:22;25.42;;;15.02;;
25419;SDS011;13354;48.174;11.566;2022-12-20T14:27:53;22.52;;;14.57;;
25419;SDS011;13354;48.174;11.566;2022-12-20T14:30:26;24.52;;;14.70;;
25419;SDS011;13354;48.174;11.566;2022-12-20T14:32:54;22.48;;;14.88;;
25419;SDS011;13354;48.174;11.566;2022-12-20T14:35:21;22.45;;;15.10;;
25419;SDS011;13354;48.174;11.566;2022-12-20T14:37:56;23.88;;;16.05;;
25419;SDS011;13354;48.174;11.566;2022-12-20T14:40:24;26.52;;;15.85;;
25419;SDS011;13354;48.174;11.566;2022-12-20T14:42:50;25.27;;;15.40;;
25419;SDS011;13354;48.174;11.566;2022-12-20T14:45:17;20.70;;;15.30;;
25419;SDS011;13354;48.174;11.566;2022-12-20T14:47:48;19.65;;;14.93;;
25419;SDS011;13354;48.174;11.566;2022-12-20T14:50:19;25.75;;;16.17;;
25419;SDS011;13354;48.174;11.566;2022-12-20T14:52:48;23.02;;;13.65;;
25419;SDS011;13354;48.174;11.566;2022-12-20T14:55:15;22.63;;;15.10;;
25419;SDS011;13354;48.174;11.566;2022-12-20T14:57:45;24.65;;;16.05;;
25419;SDS011;13354;48.174;11.566;2022-12-20T15:02:56;30.58;;;16.13;;
25419;SDS011;13354;48.174;11.566;2022-12-20T15:05:43;26.85;;;15.52;;
25419;SDS011;13354;48.174;11.566;2022-12-20T15:08:11;25.85;;;16.20;;
25419;SDS011;13354;48.174;11.566;2022-12-20T15:10:37;22.30;;;14.90;;
25419;SDS011;13354;48.174;11.566;2022-12-20T15:13:07;22.50;;;15.73;;
25419;SDS011;13354;48.174;11.566;2022-12-20T15:15:37;25.08;;;16.20;;
25419;SDS011;13354;48.174;11.566;2022-12-20T15:18:07;25.35;;;15.93;;
25419;SDS011;13354;48.174;11.566;2022-12-20T15:20:40;23.55;;;15.68;;
25419;SDS011;13354;48.174;11.566;2022-12-20T15:23:16;23.23;;;15.05;;
25419;SDS011;13354;48.174;11.566;2022-12-20T15:25:43;27.92;;;17.60;;
25419;SDS011;13354;48.174;11.566;2022-12-20T15:28:27;25.88;;;17.30;;
25419;SDS011;13354;48.174;11.566;2022-12-20T15:30:53;26.33;;;17.50;;
25419;SDS011;13354;48.174;11.566;2022-12-20T15:33:20;29.00;;;17.65;;
25419;SDS011;13354;48.174;11.566;2022-12-20T15:35:48;27.67;;;17.92;;
25419;SDS011;13354;48.174;11.566;2022-12-20T15:38:16;25.40;;;16.83;;
25419;SDS011;13354;48.174;11.566;2022-12-20T15:40:47;31.75;;;19.20;;
25419;SDS011;13354;48.174;11.566;2022-12-20T15:43:17;26.83;;;17.38;;
25419;SDS011;13354;48.174;11.566;2022-12-20T15:45:45;22.00;;;16.52;;
25419;SDS011;13354;48.174;11.566;2022-12-20T15:48:15;28.40;;;17.63;;
25419;SDS011;13354;48.174;11.566;2022-12-20T15:50:43;26.30;;;18.45;;
25419;SDS011;13354;48.174;11.566;2022-12-20T15:53:14;28.13;;;18.52;;
25419;SDS011;13354;48.174;11.566;2022-12-20T15:55:41;31.88;;;18.27;;
25419;SDS011;13354;48.174;11.566;2022-12-20T15:58:07;24.65;;;18.25;;
25419;SDS011;13354;48.174;11.566;2022-12-20T16:00:33;32.17;;;18.35;;
25419;SDS011;13354;48.174;11.566;2022-12-20T16:02:59;43.95;;;28.60;;
25419;SDS011;13354;48.174;11.566;2022-12-20T16:05:25;40.67;;;27.70;;
25419;SDS011;13354;48.174;11.566;2022-12-20T16:07:50;28.98;;;18.90;;
25419;SDS011;13354;48.174;11.566;2022-12-20T16:10:16;25.60;;;15.95;;
25419;SDS011;13354;48.174;11.566;2022-12-20T16:12:41;21.75;;;15.88;;